sensor_id;sensor_type;location;lat;lon;timestamp;P1;durP1;ratioP1;P2;durP2;ratioP2
78664;SDS011;67981;51.022;-2.870;2023-03-20T00:01:14;13.15;;;4.03;;
78664;SDS011;67981;51.022;-2.870;2023-03-20T00:03:41;7.13;;;4.05;;
78664;SDS011;67981;51.022;-2.870;2023-03-20T00:06:14;11.15;;;4.65;;
78664;SDS011;67981;51.022;-2.870;2023-03-20T00:08:41;10.02;;;3.90;;
78664;SDS011;67981;51.022;-2.870;2023-03-20T00:11:31;15.30;;;4.70;;
78664;SDS011;67981;51.022;-2.870;2023-03-20T00:14:03;11.45;;;4.05;;
78664;SDS011;67981;51.022;-2.870;2023-03-20T00:16:36;11.52;;;3.85;;
78664;SDS011;67981;51.022;-2.870;2023-03-20T00:19:03;8.13;;;3.47;;
78664;SDS011;67981;51.022;-2.870;2023-03-20T00:21:29;8.20;;;4.20;;
78664;SDS011;67981;51.022;-2.870;2023-03-20T00:23:55;15.38;;;4.40;;
78664;SDS011;67981;51.022;-2.870;2023-03-20T00:26:22;12.43;;;4.97;;
78664;SDS011;67981;51.022;-2.870;2023-03-20T00:28:50;12.98;;;4.45;;
78664;SDS011;67981;51.022;-2.870;2023-03-20T00:33:49;13.68;;;3.40;;
78664;SDS011;67981;51.022;-2.870;2023-03-20T00:36:15;7.05;;;3.53;;
78664;SDS011;67981;51.022;-2.870;2023-03-20T00:38:41;7.07;;;3.88;;
78664;SDS011;67981;51.022;-2.870;2023-03-20T00:41:13;11.80;;;3.78;;
78664;SDS011;67981;51.022;-2.870;2023-03-20T00:43:47;8.27;;;3.95;;
78664;SDS011;67981;51.022;-2.870;2023-03-20T00:46:14;9.18;;;3.30;;
78664;SDS011;67981;51.022;-2.870;2023-03-20T00:48:40;13.07;;;3.75;;
78664;SDS011;67981;51.022;-2.870;2023-03-20T00:51:07;16.80;;;4.63;;
78664;SDS011;67981;51.022;-2.870;2023-03-20T00:53:33;11.10;;;3.10;;
78664;SDS011;67981;51.022;-2.870;2023-03-20T00:55:59;7.18;;;2.58;;
78664;SDS011;67981;51.022;-2.870;2023-03-20T00:58:25;15.35;;;3.58;;
78664;SDS011;67981;51.022;-2.870;2023-03-20T01:00:50;17.05;;;4.63;;
78664;SDS011;67981;51.022;-2.870;2023-03-20T01:03:21;13.27;;;4.65;;
78664;SDS011;67981;51.022;-2.870;2023-03-20T01:05:48;9.07;;;3.55;;
78664;SDS011;67981;51.022;-2.870;2023-03-20T01:10:45;8.43;;;3.22;;
78664;SDS011;67981;51.022;-2.870;2023-03-20T01:13:20;12.43;;;3.92;;
78664;SDS011;67981;51.022;-2.870;2023-03-20T01:15:50;8.38;;;4.05;;
78664;SDS011;67981;51.022;-2.870;2023-03-20T01:18:17;14.85;;;4.22;;
78664;SDS011;67981;51.022;-2.870;2023-03-20T01:20:44;9.82;;;4.60;;
78664;SDS011;67981;51.022;-2.870;2023-03-20T01:23:11;19.17;;;5.00;;
78664;SDS011;67981;51.022;-2.870;2023-03-20T01:25:37;9.32;;;3.83;;
78664;SDS011;67981;51.022;-2.870;2023-03-20T01:28:10;14.18;;;3.53;;
78664;SDS011;67981;51.022;-2.870;2023-03-20T01:30:41;15.27;;;4.13;;
78664;SDS011;67981;51.022;-2.870;2023-03-20T01:33:14;13.35;;;3.28;;
78664;SDS011;67981;51.022;-2.870;2023-03-20T01:35:41;7.28;;;2.72;;
78664;SDS011;67981;51.022;-2.870;2023-03-20T01:38:10;7.07;;;2.95;;
78664;SDS011;67981;51.022;-2.870;2023-03-20T01:40:41;9.85;;;3.15;;
78664;SDS011;67981;51.022;-2.870;2023-03-20T01:43:27;13.90;;;3.70;;
78664;SDS011;67981;51.022;-2.870;2023-03-20T01:45:56;20.23;;;4.95;;
78664;SDS011;67981;51.022;-2.870;2023-03-20T01:48:24;8.98;;;4.15;;
78664;SDS011;67981;51.022;-2.870;2023-03-20T01:51:12;23.70;;;2.97;;
78664;SDS011;67981;51.022;-2.870;2023-03-20T01:53:37;16.70;;;3.00;;
78664;SDS011;67981;51.022;-2.870;2023-03-20T01:56:02;13.27;;;3.35;;
78664;SDS011;67981;51.022;-2.870;2023-03-20T01:58:33;12.50;;;4.18;;
78664;SDS011;67981;51.022;-2.870;2023-03-20T02:01:03;16.85;;;4.35;;
78664;SDS011;67981;51.022;-2.870;2023-03-20T02:03:31;18.58;;;3.60;;
78664;SDS011;67981;51.022;-2.870;2023-03-20T02:05:57;15.50;;;3.42;;
78664;SDS011;67981;51.022;-2.870;2023-03-20T02:08:25;9.88;;;3.63;;
78664;SDS011;67981;51.022;-2.870;2023-03-20T02:10:53;21.40;;;4.68;;
78664;SDS011;67981;51.022;-2.870;2023-03-20T02:13:20;12.73;;;3.30;;
78664;SDS011;67981;51.022;-2.870;2023-03-20T02:16:00;15.85;;;3.55;;
78664;SDS011;67981;51.022;-2.870;2023-03-20T02:18:31;13.13;;;4.70;;
78664;SDS011;67981;51.022;-2.870;2023-03-20T02:29:56;15.50;;;3.28;;
78664;SDS011;67981;51.022;-2.870;2023-03-20T02:32:40;14.35;;;4.38;;
78664;SDS011;67981;51.022;-2.870;2023-03-20T02:40:53;14.20;;;3.08;;
78664;SDS011;67981;51.022;-2.870;2023-03-20T02:45:48;21.23;;;4.28;;
78664;SDS011;67981;51.022;-2.870;2023-03-20T02:54:00;24.80;;;4.65;;
78664;SDS011;67981;51.022;-2.870;2023-03-20T02:57:04;18.98;;;5.00;;
78664;SDS011;67981;51.022;-2.870;2023-03-20T02:59:35;11.10;;;3.30;;
78664;SDS011;67981;51.022;-2.870;2023-03-20T03:02:08;16.10;;;4.20;;
78664;SDS011;67981;51.022;-2.870;2023-03-20T03:04:43;13.25;;;3.75;;
78664;SDS011;67981;51.022;-2.870;2023-03-20T03:07:19;13.73;;;4.93;;
78664;SDS011;67981;51.022;-2.870;2023-03-20T03:09:52;16.20;;;5.40;;
78664;SDS011;67981;51.022;-2.870;2023-03-20T03:12:23;15.05;;;4.22;;
78664;SDS011;67981;51.022;-2.870;2023-03-20T03:14:54;12.65;;;3.80;;
78664;SDS011;67981;51.022;-2.870;2023-03-20T03:17:25;13.52;;;4.00;;
78664;SDS011;67981;51.022;-2.870;2023-03-20T03:19:55;11.20;;;4.80;;
78664;SDS011;67981;51.022;-2.870;2023-03-20T03:22:24;13.95;;;3.45;;
78664;SDS011;67981;51.022;-2.870;2023-03-20T03:24:51;12.60;;;3.28;;
78664;SDS011;67981;51.022;-2.870;2023-03-20T03:29:52;15.25;;;4.80;;
78664;SDS011;67981;51.022;-2.870;2023-03-20T03:32:25;9.73;;;3.95;;
78664;SDS011;67981;51.022;-2.870;2023-03-20T03:34:54;13.63;;;3.28;;
78664;SDS011;67981;51.022;-2.870;2023-03-20T03:37:23;10.38;;;3.03;;
78664;SDS011;67981;51.022;-2.870;2023-03-20T03:45:41;9.63;;;3.42;;
78664;SDS011;67981;51.022;-2.870;2023-03-20T03:48:15;19.02;;;5.10;;
78664;SDS011;67981;51.022;-2.870;2023-03-20T03:50:49;16.27;;;4.50;;
78664;SDS011;67981;51.022;-2.870;2023-03-20T03:53:19;12.60;;;4.82;;
78664;SDS011;67981;51.022;-2.870;2023-03-20T03:55:49;12.65;;;5.07;;
78664;SDS011;67981;51.022;-2.870;2023-03-20T04:00:51;14.55;;;5.03;;
78664;SDS011;67981;51.022;-2.870;2023-03-20T04:03:20;12.85;;;5.63;;
78664;SDS011;67981;51.022;-2.870;2023-03-20T04:05:48;12.38;;;5.40;;
78664;SDS011;67981;51.022;-2.870;2023-03-20T04:08:18;16.92;;;5.22;;
78664;SDS011;67981;51.022;-2.870;2023-03-20T04:10:43;12.07;;;4.75;;
78664;SDS011;67981;51.022;-2.870;2023-03-20T04:13:09;20.80;;;6.55;;
78664;SDS011;67981;51.022;-2.870;2023-03-20T04:15:35;12.93;;;5.35;;
78664;SDS011;67981;51.022;-2.870;2023-03-20T04:18:02;11.45;;;5.05;;
78664;SDS011;67981;51.022;-2.870;2023-03-20T04:20:28;10.98;;;4.53;;
78664;SDS011;67981;51.022;-2.870;2023-03-20T04:22:53;14.57;;;5.82;;
78664;SDS011;67981;51.022;-2.870;2023-03-20T04:25:20;17.57;;;6.43;;
78664;SDS011;67981;51.022;-2.870;2023-03-20T04:27:48;22.13;;;8.10;;
78664;SDS011;67981;51.022;-2.870;2023-03-20T04:30:14;15.82;;;6.38;;
78664;SDS011;67981;51.022;-2.870;2023-03-20T04:32:39;18.42;;;6.75;;
78664;SDS011;67981;51.022;-2.870;2023-03-20T04:35:05;15.68;;;7.88;;
78664;SDS011;67981;51.022;-2.870;2023-03-20T04:37:31;17.02;;;6.60;;
78664;SDS011;67981;51.022;-2.870;2023-03-20T04:39:56;18.10;;;8.25;;
78664;SDS011;67981;51.022;-2.870;2023-03-20T04:42:22;14.80;;;6.70;;
78664;SDS011;67981;51.022;-2.870;2023-03-20T04:44:47;20.47;;;8.47;;
78664;SDS011;67981;51.022;-2.870;2023-03-20T04:47:12;19.57;;;7.83;;
78664;SDS011;67981;51.022;-2.870;2023-03-20T04:49:38;21.40;;;7.95;;
78664;SDS011;67981;51.022;-2.870;2023-03-20T04:52:03;22.63;;;8.88;;
78664;SDS011;67981;51.022;-2.870;2023-03-20T04:54:28;20.52;;;8.60;;
78664;SDS011;67981;51.022;-2.870;2023-03-20T04:56:54;17.52;;;7.43;;
78664;SDS011;67981;51.022;-2.870;2023-03-20T04:59:19;17.83;;;7.85;;
78664;SDS011;67981;51.022;-2.870;2023-03-20T05:01:45;17.20;;;7.07;;
78664;SDS011;67981;51.022;-2.870;2023-03-20T05:04:10;14.80;;;6.43;;
78664;SDS011;67981;51.022;-2.870;2023-03-20T05:06:36;17.58;;;6.63;;
78664;SDS011;67981;51.022;-2.870;2023-03-20T05:09:01;18.40;;;7.68;;
78664;SDS011;67981;51.022;-2.870;2023-03-20T05:11:27;15.93;;;6.90;;
78664;SDS011;67981;51.022;-2.870;2023-03-20T05:13:53;13.52;;;5.95;;
78664;SDS011;67981;51.022;-2.870;2023-03-20T05:16:18;16.48;;;7.40;;
78664;SDS011;67981;51.022;-2.870;2023-03-20T05:18:44;17.42;;;6.85;;
78664;SDS011;67981;51.022;-2.870;2023-03-20T05:21:10;16.42;;;7.95;;
78664;SDS011;67981;51.022;-2.870;2023-03-20T05:23:35;13.65;;;6.90;;
78664;SDS011;67981;51.022;-2.870;2023-03-20T05:26:01;16.08;;;7.10;;
78664;SDS011;67981;51.022;-2.870;2023-03-20T05:28:27;17.50;;;7.35;;
78664;SDS011;67981;51.022;-2.870;2023-03-20T05:30:52;16.88;;;8.13;;
78664;SDS011;67981;51.022;-2.870;2023-03-20T05:33:18;13.07;;;7.37;;
78664;SDS011;67981;51.022;-2.870;2023-03-20T05:35:43;11.55;;;6.38;;
78664;SDS011;67981;51.022;-2.870;2023-03-20T05:38:08;10.55;;;6.00;;
78664;SDS011;67981;51.022;-2.870;2023-03-20T05:40:34;8.95;;;5.47;;
78664;SDS011;67981;51.022;-2.870;2023-03-20T05:42:59;9.77;;;5.70;;
78664;SDS011;67981;51.022;-2.870;2023-03-20T05:45:25;12.33;;;5.87;;
78664;SDS011;67981;51.022;-2.870;2023-03-20T05:47:50;11.37;;;5.70;;
78664;SDS011;67981;51.022;-2.870;2023-03-20T05:50:15;10.75;;;5.72;;
78664;SDS011;67981;51.022;-2.870;2023-03-20T05:52:41;10.68;;;5.13;;
78664;SDS011;67981;51.022;-2.870;2023-03-20T05:55:06;10.50;;;5.28;;
78664;SDS011;67981;51.022;-2.870;2023-03-20T05:57:32;11.48;;;5.18;;
78664;SDS011;67981;51.022;-2.870;2023-03-20T05:59:57;11.50;;;5.68;;
78664;SDS011;67981;51.022;-2.870;2023-03-20T06:02:23;7.43;;;4.53;;
78664;SDS011;67981;51.022;-2.870;2023-03-20T06:04:48;6.55;;;4.53;;
78664;SDS011;67981;51.022;-2.870;2023-03-20T06:07:14;6.25;;;3.38;;
78664;SDS011;67981;51.022;-2.870;2023-03-20T06:09:40;6.88;;;3.60;;
78664;SDS011;67981;51.022;-2.870;2023-03-20T06:12:05;5.80;;;3.85;;
78664;SDS011;67981;51.022;-2.870;2023-03-20T06:14:31;7.28;;;3.10;;
78664;SDS011;67981;51.022;-2.870;2023-03-20T06:16:56;9.35;;;3.40;;
78664;SDS011;67981;51.022;-2.870;2023-03-20T06:19:22;6.30;;;3.65;;
78664;SDS011;67981;51.022;-2.870;2023-03-20T06:21:48;6.50;;;3.20;;
78664;SDS011;67981;51.022;-2.870;2023-03-20T06:24:14;5.80;;;3.58;;
78664;SDS011;67981;51.022;-2.870;2023-03-20T06:26:40;5.00;;;3.42;;
78664;SDS011;67981;51.022;-2.870;2023-03-20T06:29:05;4.95;;;2.63;;
78664;SDS011;67981;51.022;-2.870;2023-03-20T06:31:31;5.20;;;3.25;;
78664;SDS011;67981;51.022;-2.870;2023-03-20T06:33:56;7.13;;;3.47;;
78664;SDS011;67981;51.022;-2.870;2023-03-20T06:36:22;5.90;;;2.92;;
78664;SDS011;67981;51.022;-2.870;2023-03-20T06:38:48;8.25;;;3.67;;
78664;SDS011;67981;51.022;-2.870;2023-03-20T06:41:13;8.77;;;3.87;;
78664;SDS011;67981;51.022;-2.870;2023-03-20T06:43:39;6.03;;;2.92;;
78664;SDS011;67981;51.022;-2.870;2023-03-20T06:46:05;10.07;;;3.65;;
78664;SDS011;67981;51.022;-2.870;2023-03-20T06:48:30;5.72;;;2.97;;
78664;SDS011;67981;51.022;-2.870;2023-03-20T06:50:56;10.05;;;2.85;;
78664;SDS011;67981;51.022;-2.870;2023-03-20T06:53:21;7.78;;;3.10;;
78664;SDS011;67981;51.022;-2.870;2023-03-20T06:55:48;5.05;;;3.00;;
78664;SDS011;67981;51.022;-2.870;2023-03-20T06:58:14;7.28;;;2.95;;
78664;SDS011;67981;51.022;-2.870;2023-03-20T07:00:40;8.27;;;3.00;;
78664;SDS011;67981;51.022;-2.870;2023-03-20T07:03:06;5.15;;;2.70;;
78664;SDS011;67981;51.022;-2.870;2023-03-20T07:05:31;6.80;;;3.05;;
78664;SDS011;67981;51.022;-2.870;2023-03-20T07:07:57;4.78;;;2.85;;
78664;SDS011;67981;51.022;-2.870;2023-03-20T07:10:23;4.72;;;2.50;;
78664;SDS011;67981;51.022;-2.870;2023-03-20T07:12:49;6.70;;;3.33;;
78664;SDS011;67981;51.022;-2.870;2023-03-20T07:15:15;6.78;;;2.45;;
78664;SDS011;67981;51.022;-2.870;2023-03-20T07:17:41;4.60;;;2.50;;
78664;SDS011;67981;51.022;-2.870;2023-03-20T07:20:07;6.20;;;2.50;;
78664;SDS011;67981;51.022;-2.870;2023-03-20T07:22:34;6.38;;;2.90;;
78664;SDS011;67981;51.022;-2.870;2023-03-20T07:24:59;6.03;;;2.80;;
78664;SDS011;67981;51.022;-2.870;2023-03-20T07:27:25;6.60;;;2.88;;
78664;SDS011;67981;51.022;-2.870;2023-03-20T07:29:51;4.68;;;2.40;;
78664;SDS011;67981;51.022;-2.870;2023-03-20T07:32:16;7.88;;;2.80;;
78664;SDS011;67981;51.022;-2.870;2023-03-20T07:34:42;4.72;;;2.85;;
78664;SDS011;67981;51.022;-2.870;2023-03-20T07:37:07;4.82;;;1.88;;
78664;SDS011;67981;51.022;-2.870;2023-03-20T07:39:33;5.57;;;2.70;;
78664;SDS011;67981;51.022;-2.870;2023-03-20T07:41:58;6.23;;;3.10;;
78664;SDS011;67981;51.022;-2.870;2023-03-20T07:44:23;4.55;;;2.20;;
78664;SDS011;67981;51.022;-2.870;2023-03-20T07:46:49;3.88;;;2.38;;
78664;SDS011;67981;51.022;-2.870;2023-03-20T07:49:15;5.60;;;2.05;;
78664;SDS011;67981;51.022;-2.870;2023-03-20T07:51:44;4.13;;;1.90;;
78664;SDS011;67981;51.022;-2.870;2023-03-20T07:54:11;3.38;;;1.75;;
78664;SDS011;67981;51.022;-2.870;2023-03-20T07:56:37;2.53;;;1.50;;
78664;SDS011;67981;51.022;-2.870;2023-03-20T07:59:03;4.15;;;2.10;;
78664;SDS011;67981;51.022;-2.870;2023-03-20T08:01:28;6.00;;;2.28;;
78664;SDS011;67981;51.022;-2.870;2023-03-20T08:03:54;4.05;;;2.38;;
78664;SDS011;67981;51.022;-2.870;2023-03-20T08:06:19;3.35;;;1.77;;
78664;SDS011;67981;51.022;-2.870;2023-03-20T08:08:45;3.20;;;1.70;;
78664;SDS011;67981;51.022;-2.870;2023-03-20T08:11:11;2.30;;;1.40;;
78664;SDS011;67981;51.022;-2.870;2023-03-20T08:13:37;2.58;;;1.73;;
78664;SDS011;67981;51.022;-2.870;2023-03-20T08:16:02;2.47;;;1.48;;
78664;SDS011;67981;51.022;-2.870;2023-03-20T08:18:28;2.97;;;1.50;;
78664;SDS011;67981;51.022;-2.870;2023-03-20T08:20:54;3.58;;;1.85;;
78664;SDS011;67981;51.022;-2.870;2023-03-20T08:23:19;2.67;;;1.50;;
78664;SDS011;67981;51.022;-2.870;2023-03-20T08:25:48;2.72;;;1.73;;
78664;SDS011;67981;51.022;-2.870;2023-03-20T08:28:15;3.05;;;1.70;;
78664;SDS011;67981;51.022;-2.870;2023-03-20T08:30:41;2.45;;;1.60;;
78664;SDS011;67981;51.022;-2.870;2023-03-20T08:33:07;2.75;;;1.48;;
78664;SDS011;67981;51.022;-2.870;2023-03-20T08:35:33;2.50;;;1.27;;
78664;SDS011;67981;51.022;-2.870;2023-03-20T08:37:58;2.78;;;1.52;;
78664;SDS011;67981;51.022;-2.870;2023-03-20T08:40:24;2.20;;;1.17;;
78664;SDS011;67981;51.022;-2.870;2023-03-20T08:42:50;4.95;;;1.23;;
78664;SDS011;67981;51.022;-2.870;2023-03-20T08:45:15;3.72;;;1.85;;
78664;SDS011;67981;51.022;-2.870;2023-03-20T08:47:41;3.50;;;2.53;;
78664;SDS011;67981;51.022;-2.870;2023-03-20T08:50:06;3.88;;;1.83;;
78664;SDS011;67981;51.022;-2.870;2023-03-20T08:52:33;2.42;;;1.20;;
78664;SDS011;67981;51.022;-2.870;2023-03-20T08:54:59;2.80;;;1.23;;
78664;SDS011;67981;51.022;-2.870;2023-03-20T08:57:24;3.15;;;2.13;;
78664;SDS011;67981;51.022;-2.870;2023-03-20T08:59:50;4.43;;;1.75;;
78664;SDS011;67981;51.022;-2.870;2023-03-20T09:02:15;2.83;;;1.40;;
78664;SDS011;67981;51.022;-2.870;2023-03-20T09:04:41;3.28;;;1.10;;
78664;SDS011;67981;51.022;-2.870;2023-03-20T09:07:06;2.05;;;1.10;;
78664;SDS011;67981;51.022;-2.870;2023-03-20T09:09:32;2.75;;;1.38;;
78664;SDS011;67981;51.022;-2.870;2023-03-20T09:11:58;2.53;;;1.70;;
78664;SDS011;67981;51.022;-2.870;2023-03-20T09:14:24;4.20;;;1.60;;
78664;SDS011;67981;51.022;-2.870;2023-03-20T09:16:51;2.50;;;1.30;;
78664;SDS011;67981;51.022;-2.870;2023-03-20T09:19:17;3.80;;;1.08;;
78664;SDS011;67981;51.022;-2.870;2023-03-20T09:21:44;1.80;;;0.75;;
78664;SDS011;67981;51.022;-2.870;2023-03-20T09:24:10;2.97;;;0.90;;
78664;SDS011;67981;51.022;-2.870;2023-03-20T09:26:36;1.50;;;0.70;;
78664;SDS011;67981;51.022;-2.870;2023-03-20T09:29:02;3.30;;;1.25;;
78664;SDS011;67981;51.022;-2.870;2023-03-20T09:31:28;4.55;;;1.17;;
78664;SDS011;67981;51.022;-2.870;2023-03-20T09:33:53;2.22;;;0.95;;
78664;SDS011;67981;51.022;-2.870;2023-03-20T09:36:18;3.22;;;1.17;;
78664;SDS011;67981;51.022;-2.870;2023-03-20T09:38:44;5.53;;;1.85;;
78664;SDS011;67981;51.022;-2.870;2023-03-20T09:41:19;4.47;;;1.42;;
78664;SDS011;67981;51.022;-2.870;2023-03-20T09:49:38;2.33;;;1.30;;
78664;SDS011;67981;51.022;-2.870;2023-03-20T09:54:48;2.88;;;1.20;;
78664;SDS011;67981;51.022;-2.870;2023-03-20T09:57:19;3.08;;;1.65;;
78664;SDS011;67981;51.022;-2.870;2023-03-20T09:59:55;4.55;;;1.50;;
78664;SDS011;67981;51.022;-2.870;2023-03-20T10:05:18;2.97;;;1.30;;
78664;SDS011;67981;51.022;-2.870;2023-03-20T10:07:48;3.40;;;1.77;;
78664;SDS011;67981;51.022;-2.870;2023-03-20T10:10:14;4.03;;;1.63;;
78664;SDS011;67981;51.022;-2.870;2023-03-20T10:20:53;2.88;;;1.30;;
78664;SDS011;67981;51.022;-2.870;2023-03-20T10:23:43;2.67;;;1.42;;
78664;SDS011;67981;51.022;-2.870;2023-03-20T10:26:14;3.63;;;1.80;;
78664;SDS011;67981;51.022;-2.870;2023-03-20T10:37:45;1.50;;;0.82;;
78664;SDS011;67981;51.022;-2.870;2023-03-20T10:40:17;1.20;;;0.77;;
78664;SDS011;67981;51.022;-2.870;2023-03-20T10:42:51;2.50;;;1.23;;
78664;SDS011;67981;51.022;-2.870;2023-03-20T10:47:51;0.98;;;0.68;;
78664;SDS011;67981;51.022;-2.870;2023-03-20T10:50:23;2.85;;;1.17;;
78664;SDS011;67981;51.022;-2.870;2023-03-20T10:53:04;1.30;;;0.93;;
78664;SDS011;67981;51.022;-2.870;2023-03-20T10:55:39;2.00;;;0.90;;
78664;SDS011;67981;51.022;-2.870;2023-03-20T10:58:17;3.90;;;1.40;;
78664;SDS011;67981;51.022;-2.870;2023-03-20T11:00:46;3.35;;;1.73;;
78664;SDS011;67981;51.022;-2.870;2023-03-20T11:03:22;1.60;;;1.35;;
78664;SDS011;67981;51.022;-2.870;2023-03-20T11:05:55;2.45;;;1.10;;
78664;SDS011;67981;51.022;-2.870;2023-03-20T11:08:23;4.60;;;1.45;;
78664;SDS011;67981;51.022;-2.870;2023-03-20T11:10:57;2.08;;;1.15;;
78664;SDS011;67981;51.022;-2.870;2023-03-20T11:15:55;2.33;;;0.95;;
78664;SDS011;67981;51.022;-2.870;2023-03-20T11:18:31;1.80;;;1.20;;
78664;SDS011;67981;51.022;-2.870;2023-03-20T11:20:56;1.40;;;1.00;;
78664;SDS011;67981;51.022;-2.870;2023-03-20T11:23:23;1.23;;;0.73;;
78664;SDS011;67981;51.022;-2.870;2023-03-20T11:30:56;0.85;;;0.50;;
78664;SDS011;67981;51.022;-2.870;2023-03-20T11:35:55;1.35;;;0.52;;
78664;SDS011;67981;51.022;-2.870;2023-03-20T11:38:22;0.63;;;0.60;;
78664;SDS011;67981;51.022;-2.870;2023-03-20T11:40:49;0.70;;;0.60;;
78664;SDS011;67981;51.022;-2.870;2023-03-20T11:43:22;0.95;;;0.75;;
78664;SDS011;67981;51.022;-2.870;2023-03-20T11:45:59;1.15;;;0.75;;
78664;SDS011;67981;51.022;-2.870;2023-03-20T11:48:38;1.13;;;0.70;;
78664;SDS011;67981;51.022;-2.870;2023-03-20T11:51:06;0.70;;;0.65;;
78664;SDS011;67981;51.022;-2.870;2023-03-20T11:53:34;1.45;;;0.55;;
78664;SDS011;67981;51.022;-2.870;2023-03-20T11:56:04;1.23;;;0.70;;
78664;SDS011;67981;51.022;-2.870;2023-03-20T11:58:33;1.13;;;0.77;;
78664;SDS011;67981;51.022;-2.870;2023-03-20T12:01:01;4.28;;;1.25;;
78664;SDS011;67981;51.022;-2.870;2023-03-20T12:06:15;0.90;;;0.60;;
78664;SDS011;67981;51.022;-2.870;2023-03-20T12:08:45;1.90;;;0.90;;
78664;SDS011;67981;51.022;-2.870;2023-03-20T12:11:36;2.30;;;1.20;;
78664;SDS011;67981;51.022;-2.870;2023-03-20T12:14:11;1.15;;;0.85;;
78664;SDS011;67981;51.022;-2.870;2023-03-20T12:16:45;3.00;;;1.10;;
78664;SDS011;67981;51.022;-2.870;2023-03-20T12:19:14;0.75;;;0.40;;
78664;SDS011;67981;51.022;-2.870;2023-03-20T12:21:51;0.73;;;0.65;;
78664;SDS011;67981;51.022;-2.870;2023-03-20T12:24:40;0.70;;;0.50;;
78664;SDS011;67981;51.022;-2.870;2023-03-20T12:27:27;0.57;;;0.40;;
78664;SDS011;67981;51.022;-2.870;2023-03-20T12:29:59;1.00;;;0.80;;
78664;SDS011;67981;51.022;-2.870;2023-03-20T12:33:16;0.60;;;0.60;;
78664;SDS011;67981;51.022;-2.870;2023-03-20T12:37:58;1.20;;;0.85;;
78664;SDS011;67981;51.022;-2.870;2023-03-20T12:40:40;1.00;;;0.90;;
78664;SDS011;67981;51.022;-2.870;2023-03-20T12:43:24;3.25;;;1.63;;
78664;SDS011;67981;51.022;-2.870;2023-03-20T12:45:52;2.00;;;1.33;;
78664;SDS011;67981;51.022;-2.870;2023-03-20T13:04:45;3.22;;;1.70;;
78664;SDS011;67981;51.022;-2.870;2023-03-20T13:07:35;2.22;;;1.20;;
78664;SDS011;67981;51.022;-2.870;2023-03-20T13:18:35;5.30;;;2.20;;
78664;SDS011;67981;51.022;-2.870;2023-03-20T13:21:18;4.78;;;3.38;;
78664;SDS011;67981;51.022;-2.870;2023-03-20T13:33:08;3.35;;;1.67;;
78664;SDS011;67981;51.022;-2.870;2023-03-20T13:38:41;4.13;;;1.52;;
78664;SDS011;67981;51.022;-2.870;2023-03-20T13:41:11;3.25;;;2.15;;
78664;SDS011;67981;51.022;-2.870;2023-03-20T13:46:48;2.67;;;1.60;;
78664;SDS011;67981;51.022;-2.870;2023-03-20T13:49:23;2.70;;;2.10;;
78664;SDS011;67981;51.022;-2.870;2023-03-20T14:05:53;3.20;;;1.48;;
78664;SDS011;67981;51.022;-2.870;2023-03-20T14:13:50;2.50;;;1.50;;
78664;SDS011;67981;51.022;-2.870;2023-03-20T14:16:21;6.18;;;2.13;;
78664;SDS011;67981;51.022;-2.870;2023-03-20T14:18:47;4.32;;;2.20;;
78664;SDS011;67981;51.022;-2.870;2023-03-20T14:21:17;7.03;;;3.38;;
78664;SDS011;67981;51.022;-2.870;2023-03-20T14:23:48;8.75;;;2.30;;
78664;SDS011;67981;51.022;-2.870;2023-03-20T14:26:20;9.13;;;3.17;;
78664;SDS011;67981;51.022;-2.870;2023-03-20T14:31:26;8.25;;;2.90;;
78664;SDS011;67981;51.022;-2.870;2023-03-20T14:37:24;8.85;;;3.75;;
78664;SDS011;67981;51.022;-2.870;2023-03-20T14:47:44;7.65;;;4.25;;
78664;SDS011;67981;51.022;-2.870;2023-03-20T14:50:28;8.63;;;3.70;;
78664;SDS011;67981;51.022;-2.870;2023-03-20T14:55:30;10.75;;;4.78;;
78664;SDS011;67981;51.022;-2.870;2023-03-20T14:58:42;9.75;;;4.82;;
78664;SDS011;67981;51.022;-2.870;2023-03-20T15:01:14;11.50;;;5.30;;
78664;SDS011;67981;51.022;-2.870;2023-03-20T15:03:55;14.50;;;7.05;;
78664;SDS011;67981;51.022;-2.870;2023-03-20T15:06:24;12.63;;;5.78;;
78664;SDS011;67981;51.022;-2.870;2023-03-20T15:08:52;12.88;;;5.13;;
78664;SDS011;67981;51.022;-2.870;2023-03-20T15:11:20;12.20;;;6.15;;
78664;SDS011;67981;51.022;-2.870;2023-03-20T15:13:47;12.43;;;5.30;;
78664;SDS011;67981;51.022;-2.870;2023-03-20T15:16:14;17.60;;;7.55;;
78664;SDS011;67981;51.022;-2.870;2023-03-20T15:18:44;14.80;;;6.20;;
78664;SDS011;67981;51.022;-2.870;2023-03-20T15:23:43;14.10;;;5.53;;
78664;SDS011;67981;51.022;-2.870;2023-03-20T15:26:11;10.95;;;7.68;;
78664;SDS011;67981;51.022;-2.870;2023-03-20T15:28:39;15.55;;;5.65;;
78664;SDS011;67981;51.022;-2.870;2023-03-20T15:31:11;19.80;;;5.53;;
78664;SDS011;67981;51.022;-2.870;2023-03-20T15:33:45;14.45;;;6.70;;
78664;SDS011;67981;51.022;-2.870;2023-03-20T15:36:18;13.18;;;5.68;;
78664;SDS011;67981;51.022;-2.870;2023-03-20T15:38:47;12.13;;;5.50;;
78664;SDS011;67981;51.022;-2.870;2023-03-20T15:41:26;12.90;;;5.65;;
78664;SDS011;67981;51.022;-2.870;2023-03-20T15:44:14;13.18;;;6.47;;
78664;SDS011;67981;51.022;-2.870;2023-03-20T15:46:41;15.93;;;5.32;;
78664;SDS011;67981;51.022;-2.870;2023-03-20T15:49:24;13.05;;;7.82;;
78664;SDS011;67981;51.022;-2.870;2023-03-20T15:51:51;30.48;;;7.68;;
78664;SDS011;67981;51.022;-2.870;2023-03-20T15:54:18;19.23;;;6.57;;
78664;SDS011;67981;51.022;-2.870;2023-03-20T15:56:45;16.98;;;6.85;;
78664;SDS011;67981;51.022;-2.870;2023-03-20T15:59:16;14.35;;;7.13;;
78664;SDS011;67981;51.022;-2.870;2023-03-20T16:01:45;18.45;;;6.90;;
78664;SDS011;67981;51.022;-2.870;2023-03-20T16:04:14;10.45;;;5.07;;
78664;SDS011;67981;51.022;-2.870;2023-03-20T16:06:45;17.48;;;8.68;;
78664;SDS011;67981;51.022;-2.870;2023-03-20T16:09:20;16.50;;;7.63;;
78664;SDS011;67981;51.022;-2.870;2023-03-20T16:11:47;15.13;;;8.80;;
78664;SDS011;67981;51.022;-2.870;2023-03-20T16:14:21;13.35;;;5.50;;
78664;SDS011;67981;51.022;-2.870;2023-03-20T16:16:49;19.27;;;6.10;;
78664;SDS011;67981;51.022;-2.870;2023-03-20T16:19:16;10.63;;;5.45;;
78664;SDS011;67981;51.022;-2.870;2023-03-20T16:21:43;9.00;;;4.07;;
78664;SDS011;67981;51.022;-2.870;2023-03-20T16:24:15;9.93;;;5.97;;
78664;SDS011;67981;51.022;-2.870;2023-03-20T16:26:43;10.15;;;4.78;;
78664;SDS011;67981;51.022;-2.870;2023-03-20T16:29:12;8.20;;;5.05;;
78664;SDS011;67981;51.022;-2.870;2023-03-20T16:31:51;11.55;;;5.28;;
78664;SDS011;67981;51.022;-2.870;2023-03-20T16:34:23;13.85;;;6.10;;
78664;SDS011;67981;51.022;-2.870;2023-03-20T16:36:56;14.63;;;7.25;;
78664;SDS011;67981;51.022;-2.870;2023-03-20T16:39:24;13.80;;;6.57;;
78664;SDS011;67981;51.022;-2.870;2023-03-20T16:42:39;11.25;;;7.15;;
78664;SDS011;67981;51.022;-2.870;2023-03-20T16:44:47;13.32;;;6.43;;
78664;SDS011;67981;51.022;-2.870;2023-03-20T16:47:20;17.73;;;8.10;;
78664;SDS011;67981;51.022;-2.870;2023-03-20T16:52:16;11.40;;;5.78;;
78664;SDS011;67981;51.022;-2.870;2023-03-20T16:54:46;20.73;;;8.95;;
78664;SDS011;67981;51.022;-2.870;2023-03-20T16:57:15;11.47;;;6.33;;
78664;SDS011;67981;51.022;-2.870;2023-03-20T16:59:42;13.90;;;7.80;;
78664;SDS011;67981;51.022;-2.870;2023-03-20T17:02:20;22.08;;;10.75;;
78664;SDS011;67981;51.022;-2.870;2023-03-20T17:04:53;9.40;;;5.40;;
78664;SDS011;67981;51.022;-2.870;2023-03-20T17:07:20;26.00;;;10.63;;
78664;SDS011;67981;51.022;-2.870;2023-03-20T17:10:00;23.98;;;12.70;;
78664;SDS011;67981;51.022;-2.870;2023-03-20T17:12:41;22.90;;;12.43;;
78664;SDS011;67981;51.022;-2.870;2023-03-20T17:15:09;16.67;;;10.55;;
78664;SDS011;67981;51.022;-2.870;2023-03-20T17:17:39;17.05;;;6.45;;
78664;SDS011;67981;51.022;-2.870;2023-03-20T17:20:05;15.32;;;7.57;;
78664;SDS011;67981;51.022;-2.870;2023-03-20T17:22:31;24.13;;;6.05;;
78664;SDS011;67981;51.022;-2.870;2023-03-20T17:24:57;16.13;;;8.23;;
78664;SDS011;67981;51.022;-2.870;2023-03-20T17:27:23;13.07;;;5.05;;